sensor_id;sensor_type;location;lat;lon;timestamp;P1;durP1;ratioP1;P2;durP2;ratioP2
14736;SDS011;7459;53.590;10.062;2024-03-02T00:00:10;18.17;;;9.15;;
14736;SDS011;7459;53.590;10.062;2024-03-02T00:02:44;21.02;;;9.23;;
14736;SDS011;7459;53.590;10.062;2024-03-02T00:05:12;20.92;;;9.30;;
14736;SDS011;7459;53.590;10.062;2024-03-02T00:07:44;19.35;;;9.38;;
14736;SDS011;7459;53.590;10.062;2024-03-02T00:10:19;21.63;;;9.27;;
14736;SDS011;7459;53.590;10.062;2024-03-02T00:12:54;23.48;;;9.40;;
14736;SDS011;7459;53.590;10.062;2024-03-02T00:17:55;22.92;;;10.50;;
14736;SDS011;7459;53.590;10.062;2024-03-02T00:20:22;19.80;;;9.75;;
14736;SDS011;7459;53.590;10.062;2024-03-02T00:22:48;22.42;;;10.00;;
14736;SDS011;7459;53.590;10.062;2024-03-02T00:25:20;20.27;;;9.35;;
14736;SDS011;7459;53.590;10.062;2024-03-02T00:27:49;20.45;;;9.68;;
14736;SDS011;7459;53.590;10.062;2024-03-02T00:33:07;23.55;;;10.50;;
14736;SDS011;7459;53.590;10.062;2024-03-02T00:35:33;24.45;;;10.68;;
14736;SDS011;7459;53.590;10.062;2024-03-02T00:38:03;28.42;;;11.85;;
14736;SDS011;7459;53.590;10.062;2024-03-02T00:40:32;27.27;;;11.63;;
14736;SDS011;7459;53.590;10.062;2024-03-02T00:42:58;23.08;;;11.27;;
14736;SDS011;7459;53.590;10.062;2024-03-02T00:45:24;29.25;;;11.98;;
14736;SDS011;7459;53.590;10.062;2024-03-02T00:47:51;28.98;;;11.50;;
14736;SDS011;7459;53.590;10.062;2024-03-02T00:50:18;26.67;;;11.80;;
14736;SDS011;7459;53.590;10.062;2024-03-02T00:52:44;29.17;;;11.83;;
14736;SDS011;7459;53.590;10.062;2024-03-02T00:55:10;30.98;;;11.80;;
14736;SDS011;7459;53.590;10.062;2024-03-02T00:57:37;29.70;;;13.15;;
14736;SDS011;7459;53.590;10.062;2024-03-02T01:00:03;28.40;;;12.32;;
14736;SDS011;7459;53.590;10.062;2024-03-02T01:02:33;31.80;;;14.10;;
14736;SDS011;7459;53.590;10.062;2024-03-02T01:04:59;30.90;;;12.67;;
14736;SDS011;7459;53.590;10.062;2024-03-02T01:07:24;30.97;;;14.10;;
14736;SDS011;7459;53.590;10.062;2024-03-02T01:09:50;32.28;;;13.73;;
14736;SDS011;7459;53.590;10.062;2024-03-02T01:12:16;30.57;;;13.93;;
14736;SDS011;7459;53.590;10.062;2024-03-02T01:14:41;34.58;;;14.23;;
14736;SDS011;7459;53.590;10.062;2024-03-02T01:17:07;28.27;;;12.47;;
14736;SDS011;7459;53.590;10.062;2024-03-02T01:19:33;28.75;;;11.90;;
14736;SDS011;7459;53.590;10.062;2024-03-02T01:21:58;32.23;;;13.73;;
14736;SDS011;7459;53.590;10.062;2024-03-02T01:24:24;34.85;;;13.88;;
14736;SDS011;7459;53.590;10.062;2024-03-02T01:26:50;30.35;;;14.27;;
14736;SDS011;7459;53.590;10.062;2024-03-02T01:29:16;28.17;;;12.65;;
14736;SDS011;7459;53.590;10.062;2024-03-02T01:31:41;32.17;;;13.70;;
14736;SDS011;7459;53.590;10.062;2024-03-02T01:34:07;30.17;;;12.48;;
14736;SDS011;7459;53.590;10.062;2024-03-02T01:36:33;35.60;;;14.55;;
14736;SDS011;7459;53.590;10.062;2024-03-02T01:38:59;34.03;;;13.43;;
14736;SDS011;7459;53.590;10.062;2024-03-02T01:41:25;31.98;;;13.25;;
14736;SDS011;7459;53.590;10.062;2024-03-02T01:43:51;32.57;;;13.50;;
14736;SDS011;7459;53.590;10.062;2024-03-02T01:46:17;35.45;;;14.07;;
14736;SDS011;7459;53.590;10.062;2024-03-02T01:48:43;32.13;;;14.07;;
14736;SDS011;7459;53.590;10.062;2024-03-02T01:51:08;35.17;;;14.90;;
14736;SDS011;7459;53.590;10.062;2024-03-02T01:53:35;33.65;;;14.13;;
14736;SDS011;7459;53.590;10.062;2024-03-02T01:56:01;33.60;;;15.03;;
14736;SDS011;7459;53.590;10.062;2024-03-02T01:58:27;31.92;;;13.88;;
14736;SDS011;7459;53.590;10.062;2024-03-02T02:00:53;31.65;;;13.57;;
14736;SDS011;7459;53.590;10.062;2024-03-02T02:03:18;34.33;;;13.77;;
14736;SDS011;7459;53.590;10.062;2024-03-02T02:05:44;34.58;;;14.55;;
14736;SDS011;7459;53.590;10.062;2024-03-02T02:08:12;33.83;;;14.45;;
14736;SDS011;7459;53.590;10.062;2024-03-02T02:10:38;35.10;;;15.37;;
14736;SDS011;7459;53.590;10.062;2024-03-02T02:13:04;32.50;;;14.55;;
14736;SDS011;7459;53.590;10.062;2024-03-02T02:15:30;34.20;;;15.27;;
14736;SDS011;7459;53.590;10.062;2024-03-02T02:17:57;35.42;;;15.38;;
14736;SDS011;7459;53.590;10.062;2024-03-02T02:20:23;34.28;;;15.23;;
14736;SDS011;7459;53.590;10.062;2024-03-02T02:25:26;33.87;;;14.50;;
14736;SDS011;7459;53.590;10.062;2024-03-02T02:27:53;34.20;;;14.32;;
14736;SDS011;7459;53.590;10.062;2024-03-02T02:30:23;33.42;;;14.65;;
14736;SDS011;7459;53.590;10.062;2024-03-02T02:32:57;37.50;;;15.40;;
14736;SDS011;7459;53.590;10.062;2024-03-02T02:35:23;35.00;;;14.23;;
14736;SDS011;7459;53.590;10.062;2024-03-02T02:37:49;32.80;;;14.33;;
14736;SDS011;7459;53.590;10.062;2024-03-02T02:40:17;33.08;;;14.27;;
14736;SDS011;7459;53.590;10.062;2024-03-02T02:42:46;35.60;;;14.73;;
14736;SDS011;7459;53.590;10.062;2024-03-02T02:45:11;34.10;;;14.23;;
14736;SDS011;7459;53.590;10.062;2024-03-02T02:47:39;33.73;;;14.27;;
14736;SDS011;7459;53.590;10.062;2024-03-02T02:50:09;29.90;;;13.70;;
14736;SDS011;7459;53.590;10.062;2024-03-02T02:52:36;34.13;;;15.23;;
14736;SDS011;7459;53.590;10.062;2024-03-02T02:55:06;32.63;;;15.57;;
14736;SDS011;7459;53.590;10.062;2024-03-02T02:57:34;32.33;;;14.82;;
14736;SDS011;7459;53.590;10.062;2024-03-02T03:00:09;32.17;;;14.10;;
14736;SDS011;7459;53.590;10.062;2024-03-02T03:02:41;30.50;;;13.30;;
14736;SDS011;7459;53.590;10.062;2024-03-02T03:07:35;31.17;;;13.63;;
14736;SDS011;7459;53.590;10.062;2024-03-02T03:10:02;31.55;;;14.93;;
14736;SDS011;7459;53.590;10.062;2024-03-02T03:12:29;29.93;;;14.87;;
14736;SDS011;7459;53.590;10.062;2024-03-02T03:14:56;31.77;;;14.10;;
14736;SDS011;7459;53.590;10.062;2024-03-02T03:17:22;32.45;;;14.02;;
14736;SDS011;7459;53.590;10.062;2024-03-02T03:19:48;32.13;;;14.43;;
14736;SDS011;7459;53.590;10.062;2024-03-02T03:22:14;30.30;;;13.90;;
14736;SDS011;7459;53.590;10.062;2024-03-02T03:24:40;31.70;;;15.15;;
14736;SDS011;7459;53.590;10.062;2024-03-02T03:27:06;36.53;;;13.38;;
14736;SDS011;7459;53.590;10.062;2024-03-02T03:29:32;33.03;;;13.70;;
14736;SDS011;7459;53.590;10.062;2024-03-02T03:31:57;34.08;;;14.52;;
14736;SDS011;7459;53.590;10.062;2024-03-02T03:34:23;31.10;;;13.73;;
14736;SDS011;7459;53.590;10.062;2024-03-02T03:36:49;31.98;;;13.25;;
14736;SDS011;7459;53.590;10.062;2024-03-02T03:39:15;34.57;;;14.27;;
14736;SDS011;7459;53.590;10.062;2024-03-02T03:41:40;30.08;;;13.93;;
14736;SDS011;7459;53.590;10.062;2024-03-02T03:44:06;34.63;;;14.83;;
14736;SDS011;7459;53.590;10.062;2024-03-02T03:46:32;30.55;;;13.90;;
14736;SDS011;7459;53.590;10.062;2024-03-02T03:48:57;36.88;;;14.80;;
14736;SDS011;7459;53.590;10.062;2024-03-02T03:51:23;31.07;;;13.23;;
14736;SDS011;7459;53.590;10.062;2024-03-02T03:53:49;28.38;;;13.68;;
14736;SDS011;7459;53.590;10.062;2024-03-02T03:56:14;31.20;;;14.23;;
14736;SDS011;7459;53.590;10.062;2024-03-02T03:58:40;32.60;;;14.40;;
14736;SDS011;7459;53.590;10.062;2024-03-02T04:01:06;33.60;;;13.73;;
14736;SDS011;7459;53.590;10.062;2024-03-02T04:03:32;28.65;;;14.05;;
14736;SDS011;7459;53.590;10.062;2024-03-02T04:05:57;35.23;;;14.97;;
14736;SDS011;7459;53.590;10.062;2024-03-02T04:08:23;30.25;;;13.88;;
14736;SDS011;7459;53.590;10.062;2024-03-02T04:10:49;34.13;;;14.40;;
14736;SDS011;7459;53.590;10.062;2024-03-02T04:13:14;34.22;;;14.38;;
14736;SDS011;7459;53.590;10.062;2024-03-02T04:15:40;33.30;;;12.60;;
14736;SDS011;7459;53.590;10.062;2024-03-02T04:18:06;32.80;;;12.98;;
14736;SDS011;7459;53.590;10.062;2024-03-02T04:20:32;31.17;;;13.60;;
14736;SDS011;7459;53.590;10.062;2024-03-02T04:22:57;30.67;;;12.75;;
14736;SDS011;7459;53.590;10.062;2024-03-02T04:25:23;31.13;;;13.40;;
14736;SDS011;7459;53.590;10.062;2024-03-02T04:27:49;26.80;;;12.57;;
14736;SDS011;7459;53.590;10.062;2024-03-02T04:30:14;33.33;;;14.07;;
14736;SDS011;7459;53.590;10.062;2024-03-02T04:32:40;29.10;;;13.55;;
14736;SDS011;7459;53.590;10.062;2024-03-02T04:35:06;31.77;;;13.30;;
14736;SDS011;7459;53.590;10.062;2024-03-02T04:37:35;26.15;;;12.35;;
14736;SDS011;7459;53.590;10.062;2024-03-02T04:40:01;32.25;;;12.35;;
14736;SDS011;7459;53.590;10.062;2024-03-02T04:42:26;28.33;;;13.00;;
14736;SDS011;7459;53.590;10.062;2024-03-02T04:44:52;28.67;;;12.77;;
14736;SDS011;7459;53.590;10.062;2024-03-02T04:47:17;32.37;;;13.40;;
14736;SDS011;7459;53.590;10.062;2024-03-02T04:49:43;26.88;;;12.57;;
14736;SDS011;7459;53.590;10.062;2024-03-02T04:52:09;27.83;;;13.93;;
14736;SDS011;7459;53.590;10.062;2024-03-02T04:54:35;27.50;;;12.75;;
14736;SDS011;7459;53.590;10.062;2024-03-02T04:57:20;27.30;;;12.50;;
14736;SDS011;7459;53.590;10.062;2024-03-02T04:59:46;30.67;;;13.70;;
14736;SDS011;7459;53.590;10.062;2024-03-02T05:02:12;29.98;;;13.13;;
14736;SDS011;7459;53.590;10.062;2024-03-02T05:04:39;30.23;;;12.73;;
14736;SDS011;7459;53.590;10.062;2024-03-02T05:07:05;27.30;;;12.82;;
14736;SDS011;7459;53.590;10.062;2024-03-02T05:09:30;29.35;;;13.05;;
14736;SDS011;7459;53.590;10.062;2024-03-02T05:11:56;31.13;;;13.73;;
14736;SDS011;7459;53.590;10.062;2024-03-02T05:14:36;29.63;;;13.23;;
14736;SDS011;7459;53.590;10.062;2024-03-02T05:17:02;28.85;;;13.02;;
14736;SDS011;7459;53.590;10.062;2024-03-02T05:19:28;31.03;;;13.63;;
14736;SDS011;7459;53.590;10.062;2024-03-02T05:21:53;27.90;;;13.25;;
14736;SDS011;7459;53.590;10.062;2024-03-02T05:24:19;31.17;;;13.57;;
14736;SDS011;7459;53.590;10.062;2024-03-02T05:26:45;31.70;;;12.63;;
14736;SDS011;7459;53.590;10.062;2024-03-02T05:29:11;27.30;;;12.97;;
14736;SDS011;7459;53.590;10.062;2024-03-02T05:31:37;29.17;;;13.07;;
14736;SDS011;7459;53.590;10.062;2024-03-02T05:34:02;32.90;;;12.43;;
14736;SDS011;7459;53.590;10.062;2024-03-02T05:36:30;27.33;;;12.60;;
14736;SDS011;7459;53.590;10.062;2024-03-02T05:38:56;30.48;;;12.75;;
14736;SDS011;7459;53.590;10.062;2024-03-02T05:41:22;26.75;;;12.32;;
14736;SDS011;7459;53.590;10.062;2024-03-02T05:43:48;27.97;;;12.33;;
14736;SDS011;7459;53.590;10.062;2024-03-02T05:46:14;30.23;;;13.15;;
14736;SDS011;7459;53.590;10.062;2024-03-02T05:48:40;28.00;;;11.77;;
14736;SDS011;7459;53.590;10.062;2024-03-02T05:51:06;25.75;;;12.15;;
14736;SDS011;7459;53.590;10.062;2024-03-02T05:53:31;33.58;;;13.10;;
14736;SDS011;7459;53.590;10.062;2024-03-02T05:55:57;26.43;;;12.33;;
14736;SDS011;7459;53.590;10.062;2024-03-02T05:58:23;27.83;;;11.80;;
14736;SDS011;7459;53.590;10.062;2024-03-02T06:01:08;27.75;;;12.23;;
14736;SDS011;7459;53.590;10.062;2024-03-02T06:03:34;29.40;;;12.77;;
14736;SDS011;7459;53.590;10.062;2024-03-02T06:05:59;28.13;;;12.00;;
14736;SDS011;7459;53.590;10.062;2024-03-02T06:08:25;27.10;;;12.18;;
14736;SDS011;7459;53.590;10.062;2024-03-02T06:10:51;26.00;;;12.47;;
14736;SDS011;7459;53.590;10.062;2024-03-02T06:13:17;28.88;;;11.80;;
14736;SDS011;7459;53.590;10.062;2024-03-02T06:15:43;27.23;;;11.53;;
14736;SDS011;7459;53.590;10.062;2024-03-02T06:18:08;27.27;;;12.27;;
14736;SDS011;7459;53.590;10.062;2024-03-02T06:20:34;27.63;;;12.63;;
14736;SDS011;7459;53.590;10.062;2024-03-02T06:23:00;25.40;;;11.90;;
14736;SDS011;7459;53.590;10.062;2024-03-02T06:25:26;26.95;;;11.65;;
14736;SDS011;7459;53.590;10.062;2024-03-02T06:27:51;26.48;;;11.65;;
14736;SDS011;7459;53.590;10.062;2024-03-02T06:30:17;27.67;;;11.73;;
14736;SDS011;7459;53.590;10.062;2024-03-02T06:32:43;26.90;;;12.45;;
14736;SDS011;7459;53.590;10.062;2024-03-02T06:35:09;24.23;;;11.23;;
14736;SDS011;7459;53.590;10.062;2024-03-02T06:37:35;24.77;;;11.05;;
14736;SDS011;7459;53.590;10.062;2024-03-02T06:40:01;23.98;;;12.30;;
14736;SDS011;7459;53.590;10.062;2024-03-02T06:42:27;26.37;;;11.87;;
14736;SDS011;7459;53.590;10.062;2024-03-02T06:44:58;27.80;;;12.05;;
14736;SDS011;7459;53.590;10.062;2024-03-02T06:47:24;23.92;;;10.85;;
14736;SDS011;7459;53.590;10.062;2024-03-02T06:49:49;25.37;;;11.60;;
14736;SDS011;7459;53.590;10.062;2024-03-02T06:52:15;26.48;;;11.52;;
14736;SDS011;7459;53.590;10.062;2024-03-02T06:54:41;26.80;;;11.95;;
14736;SDS011;7459;53.590;10.062;2024-03-02T06:57:07;26.93;;;11.03;;
14736;SDS011;7459;53.590;10.062;2024-03-02T06:59:33;24.75;;;10.75;;
14736;SDS011;7459;53.590;10.062;2024-03-02T07:01:59;25.50;;;11.70;;
14736;SDS011;7459;53.590;10.062;2024-03-02T07:04:25;27.30;;;11.75;;
14736;SDS011;7459;53.590;10.062;2024-03-02T07:06:50;24.67;;;11.90;;
14736;SDS011;7459;53.590;10.062;2024-03-02T07:09:16;27.80;;;12.55;;
14736;SDS011;7459;53.590;10.062;2024-03-02T07:11:42;25.60;;;10.85;;
14736;SDS011;7459;53.590;10.062;2024-03-02T07:14:08;21.90;;;10.77;;
14736;SDS011;7459;53.590;10.062;2024-03-02T07:16:33;30.45;;;11.90;;
14736;SDS011;7459;53.590;10.062;2024-03-02T07:19:03;25.57;;;11.10;;
14736;SDS011;7459;53.590;10.062;2024-03-02T07:21:29;26.80;;;12.30;;
14736;SDS011;7459;53.590;10.062;2024-03-02T07:23:54;24.77;;;12.70;;
14736;SDS011;7459;53.590;10.062;2024-03-02T07:26:20;28.30;;;12.23;;
14736;SDS011;7459;53.590;10.062;2024-03-02T07:28:47;24.10;;;11.85;;
14736;SDS011;7459;53.590;10.062;2024-03-02T07:31:13;25.77;;;10.90;;
14736;SDS011;7459;53.590;10.062;2024-03-02T07:33:40;26.42;;;12.43;;
14736;SDS011;7459;53.590;10.062;2024-03-02T07:36:06;26.73;;;11.23;;
14736;SDS011;7459;53.590;10.062;2024-03-02T07:38:33;25.17;;;11.43;;
14736;SDS011;7459;53.590;10.062;2024-03-02T07:41:00;25.30;;;11.55;;
14736;SDS011;7459;53.590;10.062;2024-03-02T07:43:26;25.50;;;11.13;;
14736;SDS011;7459;53.590;10.062;2024-03-02T07:45:51;27.45;;;12.27;;
14736;SDS011;7459;53.590;10.062;2024-03-02T07:48:17;30.02;;;11.95;;
14736;SDS011;7459;53.590;10.062;2024-03-02T07:50:43;24.85;;;10.77;;
14736;SDS011;7459;53.590;10.062;2024-03-02T07:53:09;28.92;;;11.85;;
14736;SDS011;7459;53.590;10.062;2024-03-02T07:55:35;27.43;;;12.07;;
14736;SDS011;7459;53.590;10.062;2024-03-02T07:58:01;25.77;;;10.98;;
14736;SDS011;7459;53.590;10.062;2024-03-02T08:00:26;23.37;;;11.23;;
14736;SDS011;7459;53.590;10.062;2024-03-02T08:02:53;24.48;;;11.10;;
14736;SDS011;7459;53.590;10.062;2024-03-02T08:05:19;25.60;;;10.57;;
14736;SDS011;7459;53.590;10.062;2024-03-02T08:07:45;29.17;;;11.80;;
14736;SDS011;7459;53.590;10.062;2024-03-02T08:10:12;26.07;;;11.77;;
14736;SDS011;7459;53.590;10.062;2024-03-02T08:12:38;26.88;;;11.98;;
14736;SDS011;7459;53.590;10.062;2024-03-02T08:15:04;29.48;;;13.57;;
14736;SDS011;7459;53.590;10.062;2024-03-02T08:17:30;25.50;;;12.27;;
14736;SDS011;7459;53.590;10.062;2024-03-02T08:19:56;27.37;;;12.40;;
14736;SDS011;7459;53.590;10.062;2024-03-02T08:22:23;29.58;;;11.95;;
14736;SDS011;7459;53.590;10.062;2024-03-02T08:24:52;28.70;;;12.98;;
14736;SDS011;7459;53.590;10.062;2024-03-02T08:27:19;28.88;;;13.55;;
14736;SDS011;7459;53.590;10.062;2024-03-02T08:29:45;26.57;;;12.37;;
14736;SDS011;7459;53.590;10.062;2024-03-02T08:32:10;27.25;;;12.80;;
14736;SDS011;7459;53.590;10.062;2024-03-02T08:34:36;28.33;;;12.10;;
14736;SDS011;7459;53.590;10.062;2024-03-02T08:37:02;29.73;;;13.30;;
14736;SDS011;7459;53.590;10.062;2024-03-02T08:39:28;26.40;;;12.48;;
14736;SDS011;7459;53.590;10.062;2024-03-02T08:41:54;28.33;;;12.00;;
14736;SDS011;7459;53.590;10.062;2024-03-02T08:44:20;28.10;;;12.88;;
14736;SDS011;7459;53.590;10.062;2024-03-02T08:46:46;28.58;;;13.40;;
14736;SDS011;7459;53.590;10.062;2024-03-02T08:49:12;30.77;;;13.87;;
14736;SDS011;7459;53.590;10.062;2024-03-02T08:51:38;24.08;;;12.48;;
14736;SDS011;7459;53.590;10.062;2024-03-02T08:54:04;23.37;;;11.90;;
14736;SDS011;7459;53.590;10.062;2024-03-02T08:56:30;30.17;;;12.95;;
14736;SDS011;7459;53.590;10.062;2024-03-02T08:58:56;27.83;;;12.98;;
14736;SDS011;7459;53.590;10.062;2024-03-02T09:01:22;29.58;;;13.48;;
14736;SDS011;7459;53.590;10.062;2024-03-02T09:03:48;29.47;;;12.40;;
14736;SDS011;7459;53.590;10.062;2024-03-02T09:06:14;32.17;;;13.90;;
14736;SDS011;7459;53.590;10.062;2024-03-02T09:08:45;26.30;;;12.20;;
14736;SDS011;7459;53.590;10.062;2024-03-02T09:11:11;30.65;;;13.05;;
14736;SDS011;7459;53.590;10.062;2024-03-02T09:13:37;27.77;;;12.25;;
14736;SDS011;7459;53.590;10.062;2024-03-02T09:16:03;28.38;;;12.98;;
14736;SDS011;7459;53.590;10.062;2024-03-02T09:18:30;26.20;;;12.43;;
14736;SDS011;7459;53.590;10.062;2024-03-02T09:20:56;25.17;;;12.82;;
14736;SDS011;7459;53.590;10.062;2024-03-02T09:23:22;26.77;;;12.90;;
14736;SDS011;7459;53.590;10.062;2024-03-02T09:25:47;26.83;;;12.40;;
14736;SDS011;7459;53.590;10.062;2024-03-02T09:28:15;30.13;;;12.93;;
14736;SDS011;7459;53.590;10.062;2024-03-02T09:30:41;27.55;;;12.50;;
14736;SDS011;7459;53.590;10.062;2024-03-02T09:33:10;24.50;;;11.40;;
14736;SDS011;7459;53.590;10.062;2024-03-02T09:35:35;27.93;;;12.57;;
14736;SDS011;7459;53.590;10.062;2024-03-02T09:38:01;23.17;;;10.50;;
14736;SDS011;7459;53.590;10.062;2024-03-02T09:40:28;28.83;;;11.82;;
14736;SDS011;7459;53.590;10.062;2024-03-02T09:42:54;28.77;;;12.65;;
14736;SDS011;7459;53.590;10.062;2024-03-02T09:45:22;27.10;;;12.15;;
14736;SDS011;7459;53.590;10.062;2024-03-02T09:47:49;22.92;;;11.25;;
14736;SDS011;7459;53.590;10.062;2024-03-02T09:50:15;23.63;;;10.55;;
14736;SDS011;7459;53.590;10.062;2024-03-02T09:52:47;23.73;;;11.30;;
14736;SDS011;7459;53.590;10.062;2024-03-02T09:55:15;22.52;;;10.50;;
14736;SDS011;7459;53.590;10.062;2024-03-02T09:57:43;23.30;;;11.30;;
14736;SDS011;7459;53.590;10.062;2024-03-02T10:00:09;26.42;;;11.63;;
14736;SDS011;7459;53.590;10.062;2024-03-02T10:02:40;23.08;;;10.95;;
14736;SDS011;7459;53.590;10.062;2024-03-02T10:05:07;26.48;;;11.35;;
14736;SDS011;7459;53.590;10.062;2024-03-02T10:07:34;22.20;;;10.75;;
14736;SDS011;7459;53.590;10.062;2024-03-02T10:10:00;22.80;;;10.25;;
14736;SDS011;7459;53.590;10.062;2024-03-02T10:12:41;24.27;;;10.68;;
14736;SDS011;7459;53.590;10.062;2024-03-02T10:15:07;25.52;;;10.60;;
14736;SDS011;7459;53.590;10.062;2024-03-02T10:17:34;26.40;;;10.57;;
14736;SDS011;7459;53.590;10.062;2024-03-02T10:20:20;22.83;;;10.68;;
14736;SDS011;7459;53.590;10.062;2024-03-02T10:22:50;21.35;;;10.27;;
14736;SDS011;7459;53.590;10.062;2024-03-02T10:25:32;25.30;;;10.52;;
14736;SDS011;7459;53.590;10.062;2024-03-02T10:27:59;23.13;;;10.68;;
14736;SDS011;7459;53.590;10.062;2024-03-02T10:30:26;22.20;;;9.60;;
14736;SDS011;7459;53.590;10.062;2024-03-02T10:32:53;18.33;;;9.20;;
14736;SDS011;7459;53.590;10.062;2024-03-02T10:35:22;20.13;;;9.57;;
14736;SDS011;7459;53.590;10.062;2024-03-02T10:37:51;23.38;;;9.00;;
14736;SDS011;7459;53.590;10.062;2024-03-02T10:40:18;20.30;;;9.52;;
14736;SDS011;7459;53.590;10.062;2024-03-02T10:42:47;18.42;;;9.43;;
14736;SDS011;7459;53.590;10.062;2024-03-02T10:45:15;20.75;;;9.07;;
14736;SDS011;7459;53.590;10.062;2024-03-02T10:47:44;17.73;;;8.40;;
14736;SDS011;7459;53.590;10.062;2024-03-02T10:50:12;26.52;;;10.18;;
14736;SDS011;7459;53.590;10.062;2024-03-02T10:52:38;18.13;;;8.23;;
14736;SDS011;7459;53.590;10.062;2024-03-02T10:55:05;17.92;;;8.52;;
14736;SDS011;7459;53.590;10.062;2024-03-02T10:57:52;16.80;;;7.47;;
14736;SDS011;7459;53.590;10.062;2024-03-02T11:00:21;17.33;;;8.43;;
14736;SDS011;7459;53.590;10.062;2024-03-02T11:02:58;19.30;;;8.45;;
14736;SDS011;7459;53.590;10.062;2024-03-02T11:05:38;18.13;;;8.68;;
14736;SDS011;7459;53.590;10.062;2024-03-02T11:08:12;17.52;;;8.90;;
14736;SDS011;7459;53.590;10.062;2024-03-02T11:10:51;18.90;;;8.57;;
14736;SDS011;7459;53.590;10.062;2024-03-02T11:13:33;17.27;;;8.30;;
14736;SDS011;7459;53.590;10.062;2024-03-02T11:16:02;15.52;;;8.70;;
14736;SDS011;7459;53.590;10.062;2024-03-02T11:18:35;19.25;;;8.10;;
14736;SDS011;7459;53.590;10.062;2024-03-02T11:21:04;14.45;;;6.05;;
14736;SDS011;7459;53.590;10.062;2024-03-02T11:23:32;14.10;;;6.60;;
14736;SDS011;7459;53.590;10.062;2024-03-02T11:26:41;16.02;;;6.22;;
14736;SDS011;7459;53.590;10.062;2024-03-02T11:28:49;13.52;;;6.30;;
14736;SDS011;7459;53.590;10.062;2024-03-02T11:31:15;11.98;;;6.28;;
14736;SDS011;7459;53.590;10.062;2024-03-02T11:33:41;12.73;;;5.97;;
14736;SDS011;7459;53.590;10.062;2024-03-02T11:36:10;11.18;;;5.50;;
14736;SDS011;7459;53.590;10.062;2024-03-02T11:38:36;13.17;;;5.30;;
14736;SDS011;7459;53.590;10.062;2024-03-02T11:41:10;12.18;;;5.90;;
14736;SDS011;7459;53.590;10.062;2024-03-02T11:43:37;12.23;;;4.93;;
14736;SDS011;7459;53.590;10.062;2024-03-02T11:46:04;12.70;;;5.40;;
14736;SDS011;7459;53.590;10.062;2024-03-02T11:48:37;12.00;;;4.83;;
14736;SDS011;7459;53.590;10.062;2024-03-02T11:51:04;12.90;;;4.70;;
14736;SDS011;7459;53.590;10.062;2024-03-02T11:53:30;10.65;;;4.57;;
14736;SDS011;7459;53.590;10.062;2024-03-02T11:55:59;10.95;;;5.25;;
14736;SDS011;7459;53.590;10.062;2024-03-02T11:58:27;12.33;;;5.10;;
14736;SDS011;7459;53.590;10.062;2024-03-02T12:00:53;11.55;;;4.53;;
14736;SDS011;7459;53.590;10.062;2024-03-02T12:03:21;11.98;;;4.78;;
14736;SDS011;7459;53.590;10.062;2024-03-02T12:05:49;11.88;;;4.55;;
14736;SDS011;7459;53.590;10.062;2024-03-02T12:08:15;10.45;;;4.57;;
14736;SDS011;7459;53.590;10.062;2024-03-02T12:10:42;9.90;;;4.60;;
14736;SDS011;7459;53.590;10.062;2024-03-02T12:13:08;13.60;;;3.92;;
14736;SDS011;7459;53.590;10.062;2024-03-02T12:15:37;10.90;;;4.40;;
14736;SDS011;7459;53.590;10.062;2024-03-02T12:18:04;10.55;;;4.03;;
14736;SDS011;7459;53.590;10.062;2024-03-02T12:20:43;9.23;;;4.40;;
14736;SDS011;7459;53.590;10.062;2024-03-02T12:23:12;9.67;;;4.63;;
14736;SDS011;7459;53.590;10.062;2024-03-02T12:25:37;10.07;;;4.25;;
14736;SDS011;7459;53.590;10.062;2024-03-02T12:28:03;10.90;;;5.03;;
14736;SDS011;7459;53.590;10.062;2024-03-02T12:30:30;10.88;;;5.13;;
14736;SDS011;7459;53.590;10.062;2024-03-02T12:33:00;10.10;;;4.63;;
14736;SDS011;7459;53.590;10.062;2024-03-02T12:35:26;12.55;;;5.00;;
14736;SDS011;7459;53.590;10.062;2024-03-02T12:37:52;9.55;;;4.53;;
14736;SDS011;7459;53.590;10.062;2024-03-02T12:40:19;13.20;;;4.90;;
14736;SDS011;7459;53.590;10.062;2024-03-02T12:42:47;11.95;;;4.93;;
14736;SDS011;7459;53.590;10.062;2024-03-02T12:45:17;10.73;;;4.53;;
14736;SDS011;7459;53.590;10.062;2024-03-02T12:47:48;10.73;;;4.72;;
14736;SDS011;7459;53.590;10.062;2024-03-02T12:50:15;11.43;;;5.95;;
14736;SDS011;7459;53.590;10.062;2024-03-02T12:52:41;13.53;;;4.60;;
14736;SDS011;7459;53.590;10.062;2024-03-02T12:55:07;13.05;;;4.75;;
14736;SDS011;7459;53.590;10.062;2024-03-02T12:57:33;12.17;;;5.10;;
14736;SDS011;7459;53.590;10.062;2024-03-02T12:59:59;11.73;;;5.20;;
14736;SDS011;7459;53.590;10.062;2024-03-02T13:02:30;12.18;;;5.50;;
14736;SDS011;7459;53.590;10.062;2024-03-02T13:04:57;14.13;;;5.55;;
14736;SDS011;7459;53.590;10.062;2024-03-02T13:07:24;14.07;;;5.90;;
14736;SDS011;7459;53.590;10.062;2024-03-02T13:09:50;12.85;;;5.68;;
14736;SDS011;7459;53.590;10.062;2024-03-02T13:12:17;14.18;;;5.93;;
14736;SDS011;7459;53.590;10.062;2024-03-02T13:14:44;15.02;;;6.22;;
14736;SDS011;7459;53.590;10.062;2024-03-02T13:17:13;13.98;;;6.60;;
14736;SDS011;7459;53.590;10.062;2024-03-02T13:19:43;14.00;;;5.90;;
14736;SDS011;7459;53.590;10.062;2024-03-02T13:22:20;14.52;;;6.38;;
14736;SDS011;7459;53.590;10.062;2024-03-02T13:24:46;11.20;;;6.05;;
14736;SDS011;7459;53.590;10.062;2024-03-02T13:27:13;11.75;;;5.03;;
14736;SDS011;7459;53.590;10.062;2024-03-02T13:29:39;11.40;;;5.25;;
14736;SDS011;7459;53.590;10.062;2024-03-02T13:32:05;14.17;;;5.50;;
14736;SDS011;7459;53.590;10.062;2024-03-02T13:34:30;11.50;;;5.55;;
14736;SDS011;7459;53.590;10.062;2024-03-02T13:36:56;12.73;;;6.03;;
14736;SDS011;7459;53.590;10.062;2024-03-02T13:39:22;16.25;;;6.22;;
14736;SDS011;7459;53.590;10.062;2024-03-02T13:41:48;13.15;;;5.80;;
14736;SDS011;7459;53.590;10.062;2024-03-02T13:44:21;13.33;;;5.43;;
14736;SDS011;7459;53.590;10.062;2024-03-02T13:46:47;13.32;;;5.55;;
14736;SDS011;7459;53.590;10.062;2024-03-02T13:49:13;13.57;;;5.63;;
14736;SDS011;7459;53.590;10.062;2024-03-02T13:51:39;13.20;;;6.10;;
14736;SDS011;7459;53.590;10.062;2024-03-02T13:54:05;12.13;;;5.70;;
14736;SDS011;7459;53.590;10.062;2024-03-02T13:56:31;14.18;;;6.78;;
14736;SDS011;7459;53.590;10.062;2024-03-02T13:58:57;14.90;;;6.57;;
14736;SDS011;7459;53.590;10.062;2024-03-02T14:01:24;12.20;;;5.60;;
14736;SDS011;7459;53.590;10.062;2024-03-02T14:03:50;12.55;;;5.78;;
14736;SDS011;7459;53.590;10.062;2024-03-02T14:06:17;12.00;;;5.70;;
14736;SDS011;7459;53.590;10.062;2024-03-02T14:08:42;13.90;;;5.95;;
14736;SDS011;7459;53.590;10.062;2024-03-02T14:11:09;13.90;;;6.10;;
14736;SDS011;7459;53.590;10.062;2024-03-02T14:13:39;13.63;;;6.35;;
14736;SDS011;7459;53.590;10.062;2024-03-02T14:16:06;15.23;;;6.72;;
14736;SDS011;7459;53.590;10.062;2024-03-02T14:18:33;13.90;;;6.43;;
14736;SDS011;7459;53.590;10.062;2024-03-02T14:20:59;12.30;;;6.10;;
14736;SDS011;7459;53.590;10.062;2024-03-02T14:23:24;12.32;;;6.10;;
14736;SDS011;7459;53.590;10.062;2024-03-02T14:25:50;14.02;;;5.97;;
14736;SDS011;7459;53.590;10.062;2024-03-02T14:28:16;12.80;;;5.30;;
14736;SDS011;7459;53.590;10.062;2024-03-02T14:30:44;10.85;;;5.80;;
14736;SDS011;7459;53.590;10.062;2024-03-02T14:33:09;13.33;;;6.27;;
14736;SDS011;7459;53.590;10.062;2024-03-02T14:35:35;14.27;;;6.57;;